createdAt,value
2022-09-26T00:00:37.029Z,2.28
2022-09-26T00:03:03.489Z,2.35
2022-09-26T00:05:33.322Z,1.80
2022-09-26T00:07:59.843Z,2.15
2022-09-26T00:10:26.442Z,1.75
2022-09-26T00:12:53.281Z,1.20
2022-09-26T00:15:19.640Z,3.13
2022-09-26T00:17:46.057Z,1.38
2022-09-26T00:20:12.566Z,2.67
2022-09-26T00:22:39.120Z,2.17
2022-09-26T00:25:05.898Z,0.90
2022-09-26T00:27:32.300Z,0.70
2022-09-26T00:29:58.658Z,1.58
2022-09-26T00:32:25.022Z,0.73
2022-09-26T00:34:51.496Z,0.93
2022-09-26T00:37:17.854Z,1.00
2022-09-26T00:39:44.541Z,0.95
2022-09-26T00:42:14.641Z,0.70
2022-09-26T00:44:48.592Z,1.00
2022-09-26T00:47:31.465Z,0.90
2022-09-26T00:50:14.164Z,0.93
2022-09-26T00:52:51.951Z,1.27
2022-09-26T00:55:22.870Z,1.13
2022-09-26T00:58:00.022Z,1.30
2022-09-26T01:00:27.262Z,4.30
2022-09-26T01:02:54.144Z,2.67
2022-09-26T01:05:22.837Z,1.25
2022-09-26T01:07:51.965Z,1.02
2022-09-26T01:10:18.518Z,1.83
2022-09-26T01:12:45.216Z,2.10
2022-09-26T01:15:11.690Z,3.28
2022-09-26T01:17:40.285Z,1.85
2022-09-26T01:20:23.723Z,1.67
2022-09-26T01:23:19.962Z,2.47
2022-09-26T01:26:04.661Z,1.95
2022-09-26T01:28:40.231Z,3.15
2022-09-26T01:31:40.122Z,2.30
2022-09-26T01:34:09.441Z,4.25
2022-09-26T01:37:10.786Z,2.97
2022-09-26T01:40:02.509Z,3.03
2022-09-26T01:42:42.986Z,4.03
2022-09-26T01:45:22.714Z,2.40
2022-09-26T01:47:59.244Z,2.70
2022-09-26T01:53:12.400Z,2.10
2022-09-26T01:55:42.085Z,1.40
2022-09-26T01:58:15.380Z,1.38
2022-09-26T02:00:45.239Z,2.03
2022-09-26T02:03:19.503Z,1.75
2022-09-26T02:05:52.632Z,1.70
2022-09-26T02:08:25.527Z,2.13
2022-09-26T02:11:02.216Z,1.30
2022-09-26T02:13:36.292Z,4.00
2022-09-26T02:16:08.807Z,1.70
2022-09-26T02:18:40.512Z,4.13
2022-09-26T02:21:14.260Z,1.52
2022-09-26T02:23:40.769Z,1.88
2022-09-26T02:26:07.340Z,2.65
2022-09-26T02:28:33.952Z,1.33
2022-09-26T02:31:04.560Z,1.88
2022-09-26T02:33:31.580Z,2.78
2022-09-26T02:35:58.545Z,1.90
2022-09-26T02:38:27.663Z,2.47
2022-09-26T02:41:02.999Z,2.55
2022-09-26T02:43:35.391Z,2.53
2022-09-26T02:46:39.596Z,2.05
2022-09-26T02:49:11.949Z,2.75
2022-09-26T02:51:44.511Z,2.58
2022-09-26T02:54:20.102Z,2.65
2022-09-26T02:56:46.423Z,2.57
2022-09-26T02:59:26.921Z,2.30
2022-09-26T03:02:15.675Z,2.40
2022-09-26T03:04:51.431Z,3.33
2022-09-26T03:07:28.302Z,2.78
2022-09-26T03:10:03.620Z,2.65
2022-09-26T03:12:33.031Z,3.88
2022-09-26T03:15:03.258Z,4.68
2022-09-26T03:17:31.356Z,5.45
2022-09-26T03:20:11.626Z,6.72
2022-09-26T03:22:39.488Z,7.25
2022-09-26T03:25:07.375Z,6.35
2022-09-26T03:27:36.408Z,6.35
2022-09-26T03:30:04.044Z,5.95
2022-09-26T03:32:30.421Z,7.05
2022-09-26T03:34:57.319Z,6.10
2022-09-26T03:37:23.847Z,6.03
2022-09-26T03:39:50.252Z,7.82
2022-09-26T03:42:16.771Z,5.72
2022-09-26T03:44:44.019Z,5.70
2022-09-26T03:47:10.865Z,5.32
2022-09-26T03:49:38.853Z,5.50
2022-09-26T03:52:05.527Z,6.90
2022-09-26T03:54:31.906Z,5.68
2022-09-26T03:56:58.429Z,5.38
2022-09-26T03:59:24.878Z,6.05
2022-09-26T04:01:51.649Z,6.03
2022-09-26T04:04:18.127Z,5.50
2022-09-26T04:06:47.429Z,7.32
2022-09-26T04:09:17.031Z,6.63
2022-09-26T04:11:43.868Z,5.47
2022-09-26T04:14:10.322Z,6.25
2022-09-26T04:16:37.101Z,6.22
2022-09-26T04:19:03.905Z,6.30
2022-09-26T04:21:31.139Z,6.03
2022-09-26T04:23:57.519Z,6.00
2022-09-26T04:26:28.091Z,5.15
2022-09-26T04:28:57.041Z,4.70
2022-09-26T04:31:24.902Z,4.80
2022-09-26T04:33:51.605Z,5.50
2022-09-26T04:36:19.056Z,4.60
2022-09-26T04:38:45.451Z,5.38
2022-09-26T04:41:16.945Z,4.10
2022-09-26T04:43:43.543Z,4.05
2022-09-26T04:46:21.782Z,3.30
2022-09-26T04:48:54.811Z,3.45
2022-09-26T04:51:25.355Z,3.83
2022-09-26T04:53:52.054Z,5.75
2022-09-26T04:56:21.941Z,4.63
2022-09-26T04:58:48.805Z,4.90
2022-09-26T05:01:17.966Z,3.92
2022-09-26T05:03:44.555Z,3.72
2022-09-26T05:06:12.590Z,4.97
2022-09-26T05:08:41.105Z,5.35
2022-09-26T05:11:08.900Z,4.93
2022-09-26T05:13:37.409Z,4.65
2022-09-26T05:16:03.989Z,5.57
2022-09-26T05:18:30.432Z,5.43
2022-09-26T05:20:57.661Z,3.95
2022-09-26T05:23:45.505Z,5.35
2022-09-26T05:26:26.752Z,5.55
2022-09-26T05:28:55.449Z,4.80
2022-09-26T05:31:25.306Z,5.10
2022-09-26T05:33:51.860Z,4.47
2022-09-26T05:36:19.464Z,6.60
2022-09-26T05:38:46.092Z,6.57
2022-09-26T05:41:14.100Z,4.82
2022-09-26T05:43:40.846Z,4.45
2022-09-26T05:46:09.372Z,4.85
2022-09-26T05:48:37.600Z,4.65
2022-09-26T05:51:09.853Z,3.55
2022-09-26T05:53:36.747Z,7.72
2022-09-26T05:56:03.326Z,4.03
2022-09-26T05:58:35.121Z,4.47
2022-09-26T06:01:14.644Z,5.50
2022-09-26T06:03:45.749Z,3.80
2022-09-26T06:06:14.919Z,5.38
2022-09-26T06:08:41.984Z,5.00
2022-09-26T06:11:14.709Z,4.85
2022-09-26T06:13:45.827Z,4.47
2022-09-26T06:16:15.904Z,6.80
2022-09-26T06:18:42.371Z,8.07
2022-09-26T06:21:10.796Z,5.88
2022-09-26T06:23:37.616Z,7.25
2022-09-26T06:26:09.363Z,6.00
2022-09-26T06:28:36.735Z,5.55
2022-09-26T06:31:10.982Z,6.90
2022-09-26T06:33:37.420Z,7.13
2022-09-26T06:36:06.354Z,5.93
2022-09-26T06:38:32.835Z,6.07
2022-09-26T06:40:59.297Z,4.97
2022-09-26T06:43:25.816Z,3.58
2022-09-26T06:45:53.252Z,4.10
2022-09-26T06:48:24.593Z,10.32
2022-09-26T06:50:57.021Z,5.82
2022-09-26T06:53:23.562Z,12.13
2022-09-26T06:55:49.974Z,14.85
2022-09-26T06:58:16.371Z,9.98
2022-09-26T07:00:43.133Z,16.10
2022-09-26T07:03:09.967Z,9.80
2022-09-26T07:05:36.421Z,27.95
2022-09-26T07:08:03.342Z,22.52
2022-09-26T07:10:30.448Z,16.58
2022-09-26T07:13:05.377Z,15.43
2022-09-26T07:15:33.962Z,8.65
2022-09-26T07:18:06.302Z,11.63
2022-09-26T07:20:36.087Z,6.65
2022-09-26T07:23:03.835Z,10.30
2022-09-26T07:25:31.874Z,9.38
2022-09-26T07:27:58.846Z,10.57
2022-09-26T07:30:27.820Z,7.93
2022-09-26T07:33:03.174Z,9.68
2022-09-26T07:35:31.114Z,11.18
2022-09-26T07:37:58.243Z,4.15
2022-09-26T07:40:25.914Z,2.90
2022-09-26T07:43:15.251Z,2.40
2022-09-26T07:48:42.681Z,1.92
2022-09-26T07:51:11.308Z,1.73
2022-09-26T07:53:41.387Z,1.80
2022-09-26T07:56:10.779Z,2.90
2022-09-26T07:58:39.938Z,2.83
2022-09-26T08:01:11.551Z,3.50
2022-09-26T08:03:42.149Z,1.98
2022-09-26T08:06:09.586Z,1.40
2022-09-26T08:08:42.600Z,2.93
2022-09-26T08:11:18.203Z,2.03
2022-09-26T08:13:45.739Z,1.83
2022-09-26T08:16:21.283Z,0.95
2022-09-26T08:18:47.888Z,1.93
2022-09-26T08:21:14.290Z,2.60
2022-09-26T08:23:41.011Z,1.65
2022-09-26T08:26:07.718Z,2.40
2022-09-26T08:28:35.237Z,1.77
2022-09-26T08:31:03.001Z,1.20
2022-09-26T08:33:29.642Z,3.13
2022-09-26T08:36:01.988Z,5.40
2022-09-26T08:38:28.374Z,8.75
2022-09-26T08:41:05.219Z,0.98
2022-09-26T08:43:45.869Z,1.17
2022-09-26T08:46:38.328Z,1.50
2022-09-26T08:49:16.052Z,1.70
2022-09-26T08:51:48.149Z,1.80
2022-09-26T08:54:39.391Z,4.43
2022-09-26T08:57:23.962Z,2.60
2022-09-26T08:59:53.505Z,1.98
2022-09-26T09:02:31.643Z,2.80
2022-09-26T09:05:10.944Z,3.33
2022-09-26T09:07:37.374Z,2.50
2022-09-26T09:10:07.762Z,3.00
2022-09-26T09:12:34.088Z,5.15
2022-09-26T09:15:26.933Z,3.13
2022-09-26T09:18:03.900Z,3.17
2022-09-26T09:20:45.207Z,7.75
2022-09-26T09:23:11.541Z,4.05
2022-09-26T09:25:49.797Z,2.88
2022-09-26T09:28:43.149Z,4.38
2022-09-26T09:31:14.017Z,3.67
2022-09-26T09:33:45.874Z,4.95
2022-09-26T09:36:17.056Z,3.95
2022-09-26T09:38:49.601Z,6.03
2022-09-26T09:41:34.273Z,4.05
2022-09-26T09:44:05.462Z,3.88
2022-09-26T09:46:40.716Z,4.10
2022-09-26T09:49:10.139Z,5.80
2022-09-26T09:51:55.286Z,4.53
2022-09-26T09:54:43.913Z,4.07
2022-09-26T09:57:48.088Z,5.15
2022-09-26T10:00:18.009Z,3.97
2022-09-26T10:02:53.699Z,3.88
2022-09-26T10:05:28.466Z,3.38
2022-09-26T10:07:58.277Z,7.53
2022-09-26T10:10:39.687Z,3.08
2022-09-26T10:13:09.107Z,4.00
2022-09-26T10:15:38.905Z,3.60
2022-09-26T10:18:26.660Z,3.17
2022-09-26T10:20:55.165Z,4.07
2022-09-26T10:23:34.942Z,3.50
2022-09-26T10:26:07.321Z,4.05
2022-09-26T10:28:55.692Z,3.60
2022-09-26T10:31:31.155Z,2.80
2022-09-26T10:34:05.353Z,3.33
2022-09-26T10:36:40.228Z,3.95
2022-09-26T10:39:47.513Z,3.20
2022-09-26T10:42:22.145Z,3.00
2022-09-26T10:44:50.444Z,3.17
2022-09-26T10:47:21.299Z,3.50
2022-09-26T10:49:57.089Z,3.55
2022-09-26T10:52:51.372Z,3.90
2022-09-26T10:55:26.642Z,4.32
2022-09-26T10:57:57.268Z,4.28
2022-09-26T11:00:43.612Z,3.22
2022-09-26T11:03:38.309Z,4.10
2022-09-26T11:06:05.034Z,6.05
2022-09-26T11:08:37.453Z,3.10
2022-09-26T11:11:15.146Z,3.97
2022-09-26T11:13:48.072Z,5.43
2022-09-26T11:16:16.172Z,4.47
2022-09-26T11:18:53.428Z,3.10
2022-09-26T11:21:48.987Z,4.13
2022-09-26T11:24:30.036Z,3.47
2022-09-26T11:27:15.719Z,4.13
2022-09-26T11:29:53.389Z,4.85
2022-09-26T11:32:28.314Z,4.93
2022-09-26T11:35:02.129Z,3.42
2022-09-26T11:38:05.821Z,3.55
2022-09-26T11:40:53.794Z,3.03
2022-09-26T11:43:29.215Z,4.78
2022-09-26T11:46:14.934Z,5.05
2022-09-26T11:49:05.442Z,4.20
2022-09-26T11:51:51.186Z,7.43
2022-09-26T11:54:46.330Z,3.00
2022-09-26T11:57:46.379Z,5.18
2022-09-26T12:00:29.566Z,2.00
2022-09-26T12:03:16.247Z,3.42
2022-09-26T12:06:01.721Z,4.80
2022-09-26T12:09:05.153Z,3.00
2022-09-26T12:11:42.474Z,4.70
2022-09-26T12:14:24.087Z,4.90
2022-09-26T12:17:21.694Z,3.55
2022-09-26T12:20:06.525Z,4.50
2022-09-26T12:22:46.579Z,3.47
2022-09-26T12:25:30.893Z,3.38
2022-09-26T12:28:20.163Z,6.38
2022-09-26T12:30:59.641Z,4.85
2022-09-26T12:33:40.196Z,8.80
2022-09-26T12:36:40.341Z,3.67
2022-09-26T12:39:39.689Z,6.60
2022-09-26T12:42:32.601Z,2.33
2022-09-26T12:45:33.530Z,3.80
2022-09-26T12:48:05.881Z,5.18
2022-09-26T12:51:00.298Z,5.15
2022-09-26T12:53:53.271Z,4.15
2022-09-26T12:57:17.205Z,2.35
2022-09-26T12:59:52.763Z,6.05
2022-09-26T13:02:38.596Z,5.37
2022-09-26T13:05:24.553Z,3.47
2022-09-26T13:08:09.683Z,2.50
2022-09-26T13:10:47.297Z,2.10
2022-09-26T13:13:45.993Z,2.10
2022-09-26T13:16:34.864Z,1.70
2022-09-26T13:19:22.833Z,2.10
2022-09-26T13:22:00.124Z,2.33
2022-09-26T13:25:17.586Z,2.80
2022-09-26T13:27:52.296Z,1.55
2022-09-26T13:30:24.331Z,2.25
2022-09-26T13:33:00.830Z,0.98
2022-09-26T13:38:34.648Z,4.20
2022-09-26T13:41:11.923Z,2.17
2022-09-26T13:43:53.499Z,4.45
2022-09-26T13:46:55.744Z,2.35
2022-09-26T13:49:34.136Z,6.80
2022-09-26T13:52:16.795Z,2.60
2022-09-26T13:54:57.190Z,1.98
2022-09-26T13:57:44.786Z,2.83
2022-09-26T14:00:38.932Z,2.20
2022-09-26T14:03:16.506Z,2.65
2022-09-26T14:05:51.762Z,2.33
2022-09-26T14:08:43.082Z,3.08
2022-09-26T14:11:49.651Z,1.15
2022-09-26T14:14:19.302Z,2.75
2022-09-26T14:16:54.781Z,3.30
2022-09-26T14:19:46.446Z,1.92
2022-09-26T14:22:19.039Z,1.80
2022-09-26T14:24:46.998Z,2.67
2022-09-26T14:27:18.473Z,1.48
2022-09-26T14:29:54.075Z,1.35
2022-09-26T14:32:51.959Z,2.83
2022-09-26T14:35:26.849Z,2.60
2022-09-26T14:38:08.090Z,2.58
2022-09-26T14:40:39.187Z,2.75
2022-09-26T14:43:18.730Z,1.27
2022-09-26T14:45:51.675Z,0.82
2022-09-26T14:48:41.412Z,5.72
2022-09-26T14:51:11.008Z,1.25
2022-09-26T14:54:16.815Z,0.68
2022-09-26T14:56:47.135Z,4.18
2022-09-26T14:59:39.989Z,1.10
2022-09-26T15:02:26.045Z,1.85
2022-09-26T15:05:19.401Z,1.70
2022-09-26T15:07:49.484Z,2.00
2022-09-26T15:10:46.064Z,2.85
2022-09-26T15:13:42.548Z,1.57
2022-09-26T15:16:24.129Z,1.02
2022-09-26T15:19:27.550Z,1.63
2022-09-26T15:22:25.684Z,1.00
2022-09-26T15:25:06.953Z,2.05
2022-09-26T15:27:33.734Z,1.88
2022-09-26T15:30:34.265Z,1.65
2022-09-26T15:33:05.953Z,3.22
2022-09-26T15:35:32.954Z,2.83
2022-09-26T15:38:26.936Z,1.40
2022-09-26T15:41:05.005Z,1.75
2022-09-26T15:43:35.193Z,1.38
2022-09-26T15:46:22.537Z,2.35
2022-09-26T15:48:49.163Z,2.17
2022-09-26T15:51:42.735Z,1.80
2022-09-26T15:54:27.385Z,2.45
2022-09-26T15:57:00.717Z,2.45
2022-09-26T15:59:41.272Z,1.58
2022-09-26T16:02:43.383Z,1.75
2022-09-26T16:05:13.130Z,2.20
2022-09-26T16:07:51.101Z,1.98
2022-09-26T16:10:36.873Z,3.33
2022-09-26T16:13:25.205Z,4.55
2022-09-26T16:16:16.031Z,3.22
2022-09-26T16:18:54.708Z,2.97
2022-09-26T16:21:31.976Z,3.22
2022-09-26T16:24:01.453Z,2.28
2022-09-26T16:26:39.179Z,3.25
2022-09-26T16:29:07.867Z,2.85
2022-09-26T16:31:53.417Z,3.25
2022-09-26T16:34:22.343Z,4.47
2022-09-26T16:36:58.598Z,3.45
2022-09-26T16:39:28.141Z,2.85
2022-09-26T16:42:14.924Z,2.70
2022-09-26T16:44:49.179Z,2.90
2022-09-26T16:47:48.149Z,4.90
2022-09-26T16:50:33.949Z,3.92
2022-09-26T16:53:09.328Z,3.53
2022-09-26T16:55:37.535Z,3.28
2022-09-26T16:58:05.555Z,3.30
2022-09-26T17:00:53.129Z,3.47
2022-09-26T17:03:30.567Z,3.30
2022-09-26T17:06:10.086Z,2.75
2022-09-26T17:08:37.666Z,11.18
2022-09-26T17:11:14.149Z,4.53
2022-09-26T17:16:09.776Z,4.60
2022-09-26T17:18:37.194Z,3.22
2022-09-26T17:21:03.843Z,3.08
2022-09-26T17:23:40.920Z,6.25
2022-09-26T17:26:12.385Z,4.18
2022-09-26T17:28:42.475Z,4.15
2022-09-26T17:31:14.683Z,3.80
2022-09-26T17:33:44.417Z,4.25
2022-09-26T17:36:23.389Z,4.10
2022-09-26T17:38:50.290Z,5.60
2022-09-26T17:41:16.770Z,4.10
2022-09-26T17:43:43.244Z,4.35
2022-09-26T17:46:15.373Z,3.30
2022-09-26T17:48:43.414Z,4.00
2022-09-26T17:51:14.480Z,4.40
2022-09-26T17:53:50.521Z,3.45
2022-09-26T17:56:17.677Z,5.15
2022-09-26T17:58:45.415Z,4.80
2022-09-26T18:01:22.368Z,4.93
2022-09-26T18:03:54.529Z,5.32
2022-09-26T18:06:24.798Z,5.55
2022-09-26T18:08:52.375Z,4.57
2022-09-26T18:11:19.039Z,5.03
2022-09-26T18:13:52.669Z,3.35
2022-09-26T18:16:19.221Z,3.13
2022-09-26T18:18:45.637Z,2.83
2022-09-26T18:21:18.559Z,3.80
2022-09-26T18:23:58.411Z,4.53
2022-09-26T18:26:29.941Z,3.88
2022-09-26T18:28:58.212Z,3.70
2022-09-26T18:31:33.040Z,5.25
2022-09-26T18:33:59.992Z,3.83
2022-09-26T18:36:28.628Z,3.55
2022-09-26T18:38:55.042Z,3.85
2022-09-26T18:41:26.887Z,2.97
2022-09-26T18:43:55.680Z,5.18
2022-09-26T18:46:25.199Z,3.33
2022-09-26T18:49:06.127Z,3.95
2022-09-26T18:51:32.882Z,2.83
2022-09-26T18:53:59.368Z,3.40
2022-09-26T18:56:44.439Z,4.50
2022-09-26T18:59:11.252Z,4.13
2022-09-26T19:01:42.714Z,3.15
2022-09-26T19:04:20.148Z,5.35
2022-09-26T19:06:50.026Z,4.93
2022-09-26T19:09:21.753Z,2.85
2022-09-26T19:11:49.336Z,2.50
2022-09-26T19:14:25.599Z,2.80
2022-09-26T19:16:52.828Z,2.58
2022-09-26T19:19:20.133Z,2.00
2022-09-26T19:21:47.929Z,3.08
2022-09-26T19:24:22.655Z,2.10
2022-09-26T19:26:55.394Z,3.17
2022-09-26T19:29:28.437Z,2.50
2022-09-26T19:31:55.551Z,2.40
2022-09-26T19:34:22.370Z,3.83
2022-09-26T19:36:50.265Z,2.15
2022-09-26T19:39:20.561Z,2.58
2022-09-26T19:41:47.337Z,4.03
2022-09-26T19:44:13.861Z,2.03
2022-09-26T19:46:41.949Z,2.85
2022-09-26T19:49:18.787Z,3.15
2022-09-26T19:51:45.752Z,3.08
2022-09-26T19:54:18.251Z,2.10
2022-09-26T19:56:46.498Z,3.83
2022-09-26T19:59:17.357Z,5.13
2022-09-26T20:01:46.517Z,2.40
2022-09-26T20:04:18.877Z,4.60
2022-09-26T20:06:46.496Z,3.13
2022-09-26T20:09:19.273Z,2.25
2022-09-26T20:11:46.225Z,2.05
2022-09-26T20:14:24.704Z,4.43
2022-09-26T20:16:53.857Z,2.70
2022-09-26T20:19:35.109Z,2.58
2022-09-26T20:22:04.092Z,2.63
2022-09-26T20:24:31.971Z,5.10
2022-09-26T20:27:01.748Z,1.83
2022-09-26T20:29:28.672Z,2.90
2022-09-26T20:31:55.205Z,3.88
2022-09-26T20:34:21.837Z,1.98
2022-09-26T20:36:51.070Z,13.27
2022-09-26T20:39:26.684Z,2.47
2022-09-26T20:41:53.600Z,3.87
2022-09-26T20:44:28.463Z,3.58
2022-09-26T20:46:58.791Z,3.92
2022-09-26T20:49:31.824Z,4.20
2022-09-26T20:51:59.952Z,12.50
2022-09-26T20:54:31.674Z,8.15
2022-09-26T20:56:58.954Z,4.00
2022-09-26T20:59:26.352Z,3.05
2022-09-26T21:01:54.499Z,2.58
2022-09-26T21:04:30.228Z,2.33
2022-09-26T21:06:56.639Z,2.13
2022-09-26T21:09:23.121Z,2.15
2022-09-26T21:11:49.568Z,1.83
2022-09-26T21:14:17.141Z,2.80
2022-09-26T21:16:47.677Z,2.88
2022-09-26T21:19:20.918Z,2.40
2022-09-26T21:21:49.708Z,1.77
2022-09-26T21:24:24.262Z,2.42
2022-09-26T21:26:51.641Z,2.78
2022-09-26T21:29:18.308Z,3.08
2022-09-26T21:31:48.513Z,2.05
2022-09-26T21:34:24.155Z,2.45
2022-09-26T21:36:53.597Z,7.07
2022-09-26T21:39:20.091Z,2.40
2022-09-26T21:41:49.400Z,2.95
2022-09-26T21:44:21.884Z,2.88
2022-09-26T21:46:48.504Z,3.28
2022-09-26T21:49:15.224Z,3.63
2022-09-26T21:51:44.281Z,2.85
2022-09-26T21:54:24.614Z,4.13
2022-09-26T21:56:56.432Z,2.50
2022-09-26T21:59:24.097Z,4.60
2022-09-26T22:01:50.656Z,2.35
2022-09-26T22:04:18.972Z,5.13
2022-09-26T22:06:45.364Z,1.85
2022-09-26T22:09:11.778Z,2.72
2022-09-26T22:11:38.244Z,2.63
2022-09-26T22:14:05.458Z,4.78
2022-09-26T22:16:32.441Z,1.83
2022-09-26T22:19:05.278Z,2.63
2022-09-26T22:21:32.116Z,2.03
2022-09-26T22:23:58.487Z,1.75
2022-09-26T22:26:24.864Z,2.65
2022-09-26T22:28:51.400Z,1.77
2022-09-26T22:31:18.458Z,2.53
2022-09-26T22:33:44.961Z,2.10
2022-09-26T22:36:12.019Z,2.42
2022-09-26T22:38:39.275Z,2.75
2022-09-26T22:41:07.295Z,2.00
2022-09-26T22:43:34.669Z,1.80
2022-09-26T22:46:09.986Z,2.20
2022-09-26T22:48:39.588Z,2.83
2022-09-26T22:51:06.270Z,3.90
2022-09-26T22:53:34.289Z,3.30
2022-09-26T22:56:05.342Z,2.75
2022-09-26T22:58:36.471Z,3.03
2022-09-26T23:01:04.955Z,2.40
2022-09-26T23:03:32.988Z,4.15
2022-09-26T23:06:00.110Z,2.63
2022-09-26T23:08:26.655Z,2.90
2022-09-26T23:10:55.564Z,4.80
2022-09-26T23:13:24.421Z,2.88
2022-09-26T23:15:55.174Z,2.33
2022-09-26T23:18:22.117Z,2.53
2022-09-26T23:20:48.522Z,2.35
2022-09-26T23:23:15.014Z,1.95
2022-09-26T23:25:46.629Z,3.38
2022-09-26T23:28:13.509Z,3.40
2022-09-26T23:30:40.023Z,3.13
2022-09-26T23:33:07.240Z,2.35
2022-09-26T23:35:34.045Z,4.53
2022-09-26T23:38:00.825Z,4.00
2022-09-26T23:40:29.442Z,3.17
2022-09-26T23:42:55.859Z,3.95
2022-09-26T23:45:22.283Z,5.13
2022-09-26T23:47:49.245Z,4.88
2022-09-26T23:50:15.705Z,4.95
2022-09-26T23:52:42.146Z,2.47
2022-09-26T23:55:09.009Z,3.97
2022-09-26T23:57:36.317Z,3.15
